sensor_id;sensor_type;location;lat;lon;timestamp;P1;durP1;ratioP1;P2;durP2;ratioP2
18752;SDS011;9505;50.882;5.350;2024-01-15T00:01:28;98.03;;;19.90;;
18752;SDS011;9505;50.882;5.350;2024-01-15T00:03:54;75.05;;;16.48;;
18752;SDS011;9505;50.882;5.350;2024-01-15T00:06:19;83.93;;;17.08;;
18752;SDS011;9505;50.882;5.350;2024-01-15T00:08:45;80.90;;;17.65;;
18752;SDS011;9505;50.882;5.350;2024-01-15T00:11:11;82.43;;;16.70;;
18752;SDS011;9505;50.882;5.350;2024-01-15T00:13:37;73.57;;;16.23;;
18752;SDS011;9505;50.882;5.350;2024-01-15T00:16:04;75.55;;;16.63;;
18752;SDS011;9505;50.882;5.350;2024-01-15T00:18:30;82.50;;;17.00;;
18752;SDS011;9505;50.882;5.350;2024-01-15T00:20:56;79.20;;;17.65;;
18752;SDS011;9505;50.882;5.350;2024-01-15T00:23:22;84.13;;;16.85;;
18752;SDS011;9505;50.882;5.350;2024-01-15T00:25:48;73.53;;;17.35;;
18752;SDS011;9505;50.882;5.350;2024-01-15T00:28:13;67.18;;;16.38;;
18752;SDS011;9505;50.882;5.350;2024-01-15T00:30:39;68.53;;;16.08;;
18752;SDS011;9505;50.882;5.350;2024-01-15T00:33:04;84.63;;;17.40;;
18752;SDS011;9505;50.882;5.350;2024-01-15T00:35:30;70.55;;;16.65;;
18752;SDS011;9505;50.882;5.350;2024-01-15T00:37:56;86.80;;;18.25;;
18752;SDS011;9505;50.882;5.350;2024-01-15T00:40:21;79.53;;;17.15;;
18752;SDS011;9505;50.882;5.350;2024-01-15T00:42:47;76.50;;;17.42;;
18752;SDS011;9505;50.882;5.350;2024-01-15T00:45:13;71.55;;;16.52;;
18752;SDS011;9505;50.882;5.350;2024-01-15T00:47:38;80.35;;;18.42;;
18752;SDS011;9505;50.882;5.350;2024-01-15T00:50:04;83.45;;;17.02;;
18752;SDS011;9505;50.882;5.350;2024-01-15T00:52:30;78.18;;;16.55;;
18752;SDS011;9505;50.882;5.350;2024-01-15T00:54:56;73.22;;;17.10;;
18752;SDS011;9505;50.882;5.350;2024-01-15T00:57:21;73.63;;;16.95;;
18752;SDS011;9505;50.882;5.350;2024-01-15T00:59:47;75.95;;;16.52;;
18752;SDS011;9505;50.882;5.350;2024-01-15T01:02:13;77.10;;;16.75;;
18752;SDS011;9505;50.882;5.350;2024-01-15T01:04:40;61.65;;;16.17;;
18752;SDS011;9505;50.882;5.350;2024-01-15T01:07:05;79.30;;;16.00;;
18752;SDS011;9505;50.882;5.350;2024-01-15T01:09:31;65.13;;;16.25;;
18752;SDS011;9505;50.882;5.350;2024-01-15T01:11:57;72.88;;;17.60;;
18752;SDS011;9505;50.882;5.350;2024-01-15T01:14:22;81.53;;;23.38;;
18752;SDS011;9505;50.882;5.350;2024-01-15T01:16:48;66.63;;;16.25;;
18752;SDS011;9505;50.882;5.350;2024-01-15T01:19:14;73.55;;;16.58;;
18752;SDS011;9505;50.882;5.350;2024-01-15T01:21:40;77.88;;;15.77;;
18752;SDS011;9505;50.882;5.350;2024-01-15T01:24:06;74.85;;;17.10;;
18752;SDS011;9505;50.882;5.350;2024-01-15T01:26:31;94.80;;;19.52;;
18752;SDS011;9505;50.882;5.350;2024-01-15T01:28:57;89.05;;;18.08;;
18752;SDS011;9505;50.882;5.350;2024-01-15T01:31:23;79.65;;;18.90;;
18752;SDS011;9505;50.882;5.350;2024-01-15T01:33:50;78.47;;;17.77;;
18752;SDS011;9505;50.882;5.350;2024-01-15T01:36:15;80.80;;;16.98;;
18752;SDS011;9505;50.882;5.350;2024-01-15T01:38:41;83.32;;;16.95;;
18752;SDS011;9505;50.882;5.350;2024-01-15T01:41:07;87.35;;;18.42;;
18752;SDS011;9505;50.882;5.350;2024-01-15T01:43:32;78.45;;;17.77;;
18752;SDS011;9505;50.882;5.350;2024-01-15T01:45:59;81.85;;;18.45;;
18752;SDS011;9505;50.882;5.350;2024-01-15T01:48:26;95.10;;;17.95;;
18752;SDS011;9505;50.882;5.350;2024-01-15T01:50:57;80.55;;;16.63;;
18752;SDS011;9505;50.882;5.350;2024-01-15T01:53:26;84.93;;;17.20;;
18752;SDS011;9505;50.882;5.350;2024-01-15T01:55:53;90.40;;;18.73;;
18752;SDS011;9505;50.882;5.350;2024-01-15T01:58:19;72.03;;;16.95;;
18752;SDS011;9505;50.882;5.350;2024-01-15T02:00:45;73.05;;;17.30;;
18752;SDS011;9505;50.882;5.350;2024-01-15T02:03:12;89.35;;;17.58;;
18752;SDS011;9505;50.882;5.350;2024-01-15T02:05:39;81.63;;;17.20;;
18752;SDS011;9505;50.882;5.350;2024-01-15T02:08:05;71.10;;;17.38;;
18752;SDS011;9505;50.882;5.350;2024-01-15T02:10:31;79.15;;;18.10;;
18752;SDS011;9505;50.882;5.350;2024-01-15T02:12:57;70.00;;;15.25;;
18752;SDS011;9505;50.882;5.350;2024-01-15T02:15:23;69.35;;;15.70;;
18752;SDS011;9505;50.882;5.350;2024-01-15T02:18:10;59.55;;;14.95;;
18752;SDS011;9505;50.882;5.350;2024-01-15T02:20:35;68.78;;;16.85;;
18752;SDS011;9505;50.882;5.350;2024-01-15T02:23:07;68.68;;;15.02;;
18752;SDS011;9505;50.882;5.350;2024-01-15T02:25:38;74.18;;;16.65;;
18752;SDS011;9505;50.882;5.350;2024-01-15T02:28:05;55.80;;;14.32;;
18752;SDS011;9505;50.882;5.350;2024-01-15T02:30:34;64.65;;;15.60;;
18752;SDS011;9505;50.882;5.350;2024-01-15T02:33:03;58.72;;;13.30;;
18752;SDS011;9505;50.882;5.350;2024-01-15T02:35:28;70.40;;;16.98;;
18752;SDS011;9505;50.882;5.350;2024-01-15T02:37:54;51.35;;;13.55;;
18752;SDS011;9505;50.882;5.350;2024-01-15T02:40:19;63.10;;;14.60;;
18752;SDS011;9505;50.882;5.350;2024-01-15T02:42:45;54.42;;;14.13;;
18752;SDS011;9505;50.882;5.350;2024-01-15T02:45:11;58.90;;;14.70;;
18752;SDS011;9505;50.882;5.350;2024-01-15T02:47:36;62.13;;;13.82;;
18752;SDS011;9505;50.882;5.350;2024-01-15T02:50:02;59.58;;;14.25;;
18752;SDS011;9505;50.882;5.350;2024-01-15T02:52:28;63.78;;;12.27;;
18752;SDS011;9505;50.882;5.350;2024-01-15T02:54:53;53.47;;;13.60;;
18752;SDS011;9505;50.882;5.350;2024-01-15T02:57:19;55.20;;;13.35;;
18752;SDS011;9505;50.882;5.350;2024-01-15T02:59:45;58.38;;;13.35;;
18752;SDS011;9505;50.882;5.350;2024-01-15T03:02:10;60.95;;;14.23;;
18752;SDS011;9505;50.882;5.350;2024-01-15T03:04:36;66.25;;;13.82;;
18752;SDS011;9505;50.882;5.350;2024-01-15T03:07:02;64.10;;;14.38;;
18752;SDS011;9505;50.882;5.350;2024-01-15T03:09:27;61.17;;;13.85;;
18752;SDS011;9505;50.882;5.350;2024-01-15T03:11:53;66.00;;;13.57;;
18752;SDS011;9505;50.882;5.350;2024-01-15T03:14:18;61.33;;;13.68;;
18752;SDS011;9505;50.882;5.350;2024-01-15T03:16:45;55.53;;;13.07;;
18752;SDS011;9505;50.882;5.350;2024-01-15T03:19:11;61.33;;;12.98;;
18752;SDS011;9505;50.882;5.350;2024-01-15T03:21:36;69.90;;;15.00;;
18752;SDS011;9505;50.882;5.350;2024-01-15T03:24:02;55.10;;;13.15;;
18752;SDS011;9505;50.882;5.350;2024-01-15T03:26:28;76.70;;;13.35;;
18752;SDS011;9505;50.882;5.350;2024-01-15T03:28:53;55.72;;;13.57;;
18752;SDS011;9505;50.882;5.350;2024-01-15T03:31:19;59.25;;;12.77;;
18752;SDS011;9505;50.882;5.350;2024-01-15T03:33:45;66.22;;;14.50;;
18752;SDS011;9505;50.882;5.350;2024-01-15T03:36:10;55.45;;;13.05;;
18752;SDS011;9505;50.882;5.350;2024-01-15T03:38:38;62.88;;;13.20;;
18752;SDS011;9505;50.882;5.350;2024-01-15T03:41:05;51.95;;;13.82;;
18752;SDS011;9505;50.882;5.350;2024-01-15T03:43:31;56.15;;;13.77;;
18752;SDS011;9505;50.882;5.350;2024-01-15T03:45:57;60.88;;;14.40;;
18752;SDS011;9505;50.882;5.350;2024-01-15T03:48:22;59.35;;;13.88;;
18752;SDS011;9505;50.882;5.350;2024-01-15T03:50:48;64.97;;;13.77;;
18752;SDS011;9505;50.882;5.350;2024-01-15T03:53:13;56.35;;;12.68;;
18752;SDS011;9505;50.882;5.350;2024-01-15T03:55:39;64.53;;;13.90;;
18752;SDS011;9505;50.882;5.350;2024-01-15T03:58:05;62.03;;;13.38;;
18752;SDS011;9505;50.882;5.350;2024-01-15T04:00:30;62.33;;;14.15;;
18752;SDS011;9505;50.882;5.350;2024-01-15T04:02:56;53.28;;;13.32;;
18752;SDS011;9505;50.882;5.350;2024-01-15T04:05:21;58.20;;;13.30;;
18752;SDS011;9505;50.882;5.350;2024-01-15T04:07:47;58.22;;;13.23;;
18752;SDS011;9505;50.882;5.350;2024-01-15T04:10:13;58.97;;;15.00;;
18752;SDS011;9505;50.882;5.350;2024-01-15T04:12:38;78.30;;;18.63;;
18752;SDS011;9505;50.882;5.350;2024-01-15T04:15:04;59.80;;;13.52;;
18752;SDS011;9505;50.882;5.350;2024-01-15T04:17:30;57.88;;;13.68;;
18752;SDS011;9505;50.882;5.350;2024-01-15T04:19:55;49.65;;;10.77;;
18752;SDS011;9505;50.882;5.350;2024-01-15T04:22:21;52.53;;;12.07;;
18752;SDS011;9505;50.882;5.350;2024-01-15T04:24:48;50.88;;;12.20;;
18752;SDS011;9505;50.882;5.350;2024-01-15T04:27:14;54.53;;;11.68;;
18752;SDS011;9505;50.882;5.350;2024-01-15T04:29:39;54.63;;;12.73;;
18752;SDS011;9505;50.882;5.350;2024-01-15T04:32:05;62.50;;;12.48;;
18752;SDS011;9505;50.882;5.350;2024-01-15T04:34:31;60.63;;;11.52;;
18752;SDS011;9505;50.882;5.350;2024-01-15T04:36:56;45.85;;;11.38;;
18752;SDS011;9505;50.882;5.350;2024-01-15T04:39:22;50.72;;;11.45;;
18752;SDS011;9505;50.882;5.350;2024-01-15T04:41:48;55.50;;;11.98;;
18752;SDS011;9505;50.882;5.350;2024-01-15T04:44:13;56.22;;;12.40;;
18752;SDS011;9505;50.882;5.350;2024-01-15T04:46:40;55.80;;;13.10;;
18752;SDS011;9505;50.882;5.350;2024-01-15T04:49:07;49.08;;;11.32;;
18752;SDS011;9505;50.882;5.350;2024-01-15T04:51:32;53.20;;;12.10;;
18752;SDS011;9505;50.882;5.350;2024-01-15T04:53:59;65.30;;;14.63;;
18752;SDS011;9505;50.882;5.350;2024-01-15T04:56:26;67.15;;;14.30;;
18752;SDS011;9505;50.882;5.350;2024-01-15T04:58:51;69.93;;;14.18;;
18752;SDS011;9505;50.882;5.350;2024-01-15T05:01:17;51.95;;;12.82;;
18752;SDS011;9505;50.882;5.350;2024-01-15T05:03:43;70.35;;;15.30;;
18752;SDS011;9505;50.882;5.350;2024-01-15T05:06:08;70.97;;;15.05;;
18752;SDS011;9505;50.882;5.350;2024-01-15T05:08:34;66.97;;;15.27;;
18752;SDS011;9505;50.882;5.350;2024-01-15T05:11:00;69.75;;;16.23;;
18752;SDS011;9505;50.882;5.350;2024-01-15T05:13:26;68.57;;;15.52;;
18752;SDS011;9505;50.882;5.350;2024-01-15T05:15:52;74.75;;;16.77;;
18752;SDS011;9505;50.882;5.350;2024-01-15T05:18:17;62.53;;;15.15;;
18752;SDS011;9505;50.882;5.350;2024-01-15T05:20:43;75.75;;;17.88;;
18752;SDS011;9505;50.882;5.350;2024-01-15T05:23:09;68.07;;;16.45;;
18752;SDS011;9505;50.882;5.350;2024-01-15T05:25:34;72.70;;;16.13;;
18752;SDS011;9505;50.882;5.350;2024-01-15T05:28:00;69.97;;;17.40;;
18752;SDS011;9505;50.882;5.350;2024-01-15T05:30:27;96.72;;;19.58;;
18752;SDS011;9505;50.882;5.350;2024-01-15T05:32:53;82.25;;;19.48;;
18752;SDS011;9505;50.882;5.350;2024-01-15T05:35:18;77.55;;;19.50;;
18752;SDS011;9505;50.882;5.350;2024-01-15T05:37:44;72.32;;;17.05;;
18752;SDS011;9505;50.882;5.350;2024-01-15T05:40:11;61.03;;;16.38;;
18752;SDS011;9505;50.882;5.350;2024-01-15T05:42:37;72.38;;;18.85;;
18752;SDS011;9505;50.882;5.350;2024-01-15T05:45:04;79.93;;;18.42;;
18752;SDS011;9505;50.882;5.350;2024-01-15T05:47:30;80.50;;;19.48;;
18752;SDS011;9505;50.882;5.350;2024-01-15T05:49:56;80.97;;;18.88;;
18752;SDS011;9505;50.882;5.350;2024-01-15T05:52:22;71.82;;;17.67;;
18752;SDS011;9505;50.882;5.350;2024-01-15T05:54:48;85.47;;;19.75;;
18752;SDS011;9505;50.882;5.350;2024-01-15T05:57:14;62.83;;;17.13;;
18752;SDS011;9505;50.882;5.350;2024-01-15T05:59:40;71.32;;;17.33;;
18752;SDS011;9505;50.882;5.350;2024-01-15T06:02:06;71.72;;;16.90;;
18752;SDS011;9505;50.882;5.350;2024-01-15T06:04:31;76.85;;;18.90;;
18752;SDS011;9505;50.882;5.350;2024-01-15T06:06:57;70.45;;;17.20;;
18752;SDS011;9505;50.882;5.350;2024-01-15T06:09:23;58.25;;;15.30;;
18752;SDS011;9505;50.882;5.350;2024-01-15T06:11:48;72.10;;;17.65;;
18752;SDS011;9505;50.882;5.350;2024-01-15T06:14:14;76.63;;;18.67;;
18752;SDS011;9505;50.882;5.350;2024-01-15T06:16:40;75.63;;;17.77;;
18752;SDS011;9505;50.882;5.350;2024-01-15T06:19:05;76.32;;;17.73;;
18752;SDS011;9505;50.882;5.350;2024-01-15T06:21:31;73.63;;;17.80;;
18752;SDS011;9505;50.882;5.350;2024-01-15T06:23:58;69.55;;;17.05;;
18752;SDS011;9505;50.882;5.350;2024-01-15T06:26:23;81.80;;;19.25;;
18752;SDS011;9505;50.882;5.350;2024-01-15T06:28:49;73.03;;;17.40;;
18752;SDS011;9505;50.882;5.350;2024-01-15T06:31:15;64.75;;;18.05;;
18752;SDS011;9505;50.882;5.350;2024-01-15T06:33:41;72.30;;;17.17;;
18752;SDS011;9505;50.882;5.350;2024-01-15T06:36:07;78.65;;;17.63;;
18752;SDS011;9505;50.882;5.350;2024-01-15T06:38:33;78.45;;;17.42;;
18752;SDS011;9505;50.882;5.350;2024-01-15T06:40:59;79.55;;;17.92;;
18752;SDS011;9505;50.882;5.350;2024-01-15T06:43:25;73.55;;;16.10;;
18752;SDS011;9505;50.882;5.350;2024-01-15T06:45:50;70.72;;;16.10;;
18752;SDS011;9505;50.882;5.350;2024-01-15T06:48:16;62.63;;;14.68;;
18752;SDS011;9505;50.882;5.350;2024-01-15T06:50:42;46.90;;;11.95;;
18752;SDS011;9505;50.882;5.350;2024-01-15T06:53:08;42.60;;;10.95;;
18752;SDS011;9505;50.882;5.350;2024-01-15T06:55:33;51.78;;;13.07;;
18752;SDS011;9505;50.882;5.350;2024-01-15T06:57:59;55.92;;;13.00;;
18752;SDS011;9505;50.882;5.350;2024-01-15T07:00:25;52.05;;;11.48;;
18752;SDS011;9505;50.882;5.350;2024-01-15T07:02:52;49.95;;;11.70;;
18752;SDS011;9505;50.882;5.350;2024-01-15T07:05:18;57.63;;;13.38;;
18752;SDS011;9505;50.882;5.350;2024-01-15T07:07:45;42.67;;;10.70;;
18752;SDS011;9505;50.882;5.350;2024-01-15T07:10:10;36.33;;;8.82;;
18752;SDS011;9505;50.882;5.350;2024-01-15T07:12:36;41.33;;;10.07;;
18752;SDS011;9505;50.882;5.350;2024-01-15T07:15:02;41.45;;;10.73;;
18752;SDS011;9505;50.882;5.350;2024-01-15T07:17:29;32.92;;;9.52;;
18752;SDS011;9505;50.882;5.350;2024-01-15T07:19:56;52.83;;;11.50;;
18752;SDS011;9505;50.882;5.350;2024-01-15T07:22:21;37.10;;;8.48;;
18752;SDS011;9505;50.882;5.350;2024-01-15T07:24:47;31.40;;;8.50;;
18752;SDS011;9505;50.882;5.350;2024-01-15T07:27:12;39.97;;;8.90;;
18752;SDS011;9505;50.882;5.350;2024-01-15T07:29:38;34.75;;;8.48;;
18752;SDS011;9505;50.882;5.350;2024-01-15T07:32:04;45.75;;;9.95;;
18752;SDS011;9505;50.882;5.350;2024-01-15T07:34:30;37.08;;;9.63;;
18752;SDS011;9505;50.882;5.350;2024-01-15T07:36:57;47.97;;;9.73;;
18752;SDS011;9505;50.882;5.350;2024-01-15T07:39:23;39.55;;;8.52;;
18752;SDS011;9505;50.882;5.350;2024-01-15T07:41:49;54.90;;;10.73;;
18752;SDS011;9505;50.882;5.350;2024-01-15T07:44:18;35.30;;;8.18;;
18752;SDS011;9505;50.882;5.350;2024-01-15T07:46:44;33.95;;;7.82;;
18752;SDS011;9505;50.882;5.350;2024-01-15T07:49:10;30.30;;;7.65;;
18752;SDS011;9505;50.882;5.350;2024-01-15T07:51:36;32.20;;;8.35;;
18752;SDS011;9505;50.882;5.350;2024-01-15T07:54:02;28.27;;;7.55;;
18752;SDS011;9505;50.882;5.350;2024-01-15T07:56:28;22.27;;;7.07;;
18752;SDS011;9505;50.882;5.350;2024-01-15T07:58:54;23.15;;;6.55;;
18752;SDS011;9505;50.882;5.350;2024-01-15T08:01:19;36.45;;;8.07;;
18752;SDS011;9505;50.882;5.350;2024-01-15T08:03:45;30.63;;;6.93;;
18752;SDS011;9505;50.882;5.350;2024-01-15T08:06:10;48.13;;;8.38;;
18752;SDS011;9505;50.882;5.350;2024-01-15T08:08:37;56.85;;;9.32;;
18752;SDS011;9505;50.882;5.350;2024-01-15T08:11:02;21.08;;;5.82;;
18752;SDS011;9505;50.882;5.350;2024-01-15T08:13:28;46.47;;;7.55;;
18752;SDS011;9505;50.882;5.350;2024-01-15T08:15:54;26.73;;;5.28;;
18752;SDS011;9505;50.882;5.350;2024-01-15T08:18:19;24.75;;;5.68;;
18752;SDS011;9505;50.882;5.350;2024-01-15T08:20:46;23.80;;;5.32;;
18752;SDS011;9505;50.882;5.350;2024-01-15T08:23:12;25.35;;;5.85;;
18752;SDS011;9505;50.882;5.350;2024-01-15T08:25:38;26.90;;;5.93;;
18752;SDS011;9505;50.882;5.350;2024-01-15T08:28:04;43.67;;;6.90;;
18752;SDS011;9505;50.882;5.350;2024-01-15T08:30:29;22.35;;;4.65;;
18752;SDS011;9505;50.882;5.350;2024-01-15T08:32:55;29.52;;;5.50;;
18752;SDS011;9505;50.882;5.350;2024-01-15T08:35:21;31.58;;;5.07;;
18752;SDS011;9505;50.882;5.350;2024-01-15T08:37:50;35.60;;;5.63;;
18752;SDS011;9505;50.882;5.350;2024-01-15T08:40:17;26.38;;;4.88;;
18752;SDS011;9505;50.882;5.350;2024-01-15T08:42:43;26.95;;;4.10;;
18752;SDS011;9505;50.882;5.350;2024-01-15T08:45:09;35.33;;;5.28;;
18752;SDS011;9505;50.882;5.350;2024-01-15T08:47:35;18.15;;;3.92;;
18752;SDS011;9505;50.882;5.350;2024-01-15T08:50:01;42.78;;;6.22;;
18752;SDS011;9505;50.882;5.350;2024-01-15T08:52:28;33.03;;;5.82;;
18752;SDS011;9505;50.882;5.350;2024-01-15T08:54:54;24.33;;;4.55;;
18752;SDS011;9505;50.882;5.350;2024-01-15T08:57:21;19.48;;;4.00;;
18752;SDS011;9505;50.882;5.350;2024-01-15T08:59:47;20.88;;;4.35;;
18752;SDS011;9505;50.882;5.350;2024-01-15T09:02:13;23.92;;;5.30;;
18752;SDS011;9505;50.882;5.350;2024-01-15T09:04:39;23.05;;;4.20;;
18752;SDS011;9505;50.882;5.350;2024-01-15T09:07:04;22.25;;;4.45;;
18752;SDS011;9505;50.882;5.350;2024-01-15T09:09:30;30.25;;;4.70;;
18752;SDS011;9505;50.882;5.350;2024-01-15T09:11:56;26.42;;;5.30;;
18752;SDS011;9505;50.882;5.350;2024-01-15T09:14:21;19.25;;;4.80;;
18752;SDS011;9505;50.882;5.350;2024-01-15T09:16:49;27.08;;;4.93;;
18752;SDS011;9505;50.882;5.350;2024-01-15T09:19:16;27.20;;;5.78;;
18752;SDS011;9505;50.882;5.350;2024-01-15T09:21:41;28.52;;;5.45;;
18752;SDS011;9505;50.882;5.350;2024-01-15T09:24:07;31.08;;;6.10;;
18752;SDS011;9505;50.882;5.350;2024-01-15T09:26:33;21.52;;;5.13;;
18752;SDS011;9505;50.882;5.350;2024-01-15T09:28:58;30.75;;;6.32;;
18752;SDS011;9505;50.882;5.350;2024-01-15T09:31:24;30.95;;;6.15;;
18752;SDS011;9505;50.882;5.350;2024-01-15T09:33:49;20.63;;;4.60;;
18752;SDS011;9505;50.882;5.350;2024-01-15T09:36:21;25.80;;;6.50;;
18752;SDS011;9505;50.882;5.350;2024-01-15T09:38:47;23.58;;;5.60;;
18752;SDS011;9505;50.882;5.350;2024-01-15T09:41:13;30.00;;;7.00;;
18752;SDS011;9505;50.882;5.350;2024-01-15T09:43:40;22.40;;;6.05;;
18752;SDS011;9505;50.882;5.350;2024-01-15T09:46:06;27.70;;;6.03;;
18752;SDS011;9505;50.882;5.350;2024-01-15T09:48:32;37.05;;;7.45;;
18752;SDS011;9505;50.882;5.350;2024-01-15T09:50:59;20.15;;;5.25;;
18752;SDS011;9505;50.882;5.350;2024-01-15T09:53:27;37.28;;;7.47;;
18752;SDS011;9505;50.882;5.350;2024-01-15T09:55:53;32.13;;;6.47;;
18752;SDS011;9505;50.882;5.350;2024-01-15T09:58:19;34.08;;;6.85;;
18752;SDS011;9505;50.882;5.350;2024-01-15T10:00:46;40.05;;;6.70;;
18752;SDS011;9505;50.882;5.350;2024-01-15T10:03:15;32.15;;;6.82;;
18752;SDS011;9505;50.882;5.350;2024-01-15T10:05:40;26.23;;;6.20;;
18752;SDS011;9505;50.882;5.350;2024-01-15T10:08:06;24.38;;;5.80;;
18752;SDS011;9505;50.882;5.350;2024-01-15T10:10:32;23.77;;;5.38;;
18752;SDS011;9505;50.882;5.350;2024-01-15T10:13:01;25.02;;;5.63;;
18752;SDS011;9505;50.882;5.350;2024-01-15T10:15:26;31.58;;;6.15;;
18752;SDS011;9505;50.882;5.350;2024-01-15T10:17:52;22.70;;;5.15;;
18752;SDS011;9505;50.882;5.350;2024-01-15T10:20:18;35.13;;;6.18;;
18752;SDS011;9505;50.882;5.350;2024-01-15T10:22:44;25.45;;;5.22;;
18752;SDS011;9505;50.882;5.350;2024-01-15T10:25:12;32.38;;;5.15;;
18752;SDS011;9505;50.882;5.350;2024-01-15T10:27:39;33.22;;;5.03;;
18752;SDS011;9505;50.882;5.350;2024-01-15T10:30:06;31.58;;;4.90;;
18752;SDS011;9505;50.882;5.350;2024-01-15T10:32:32;33.00;;;5.30;;
18752;SDS011;9505;50.882;5.350;2024-01-15T10:34:58;26.88;;;4.40;;
18752;SDS011;9505;50.882;5.350;2024-01-15T10:37:24;31.77;;;4.03;;
18752;SDS011;9505;50.882;5.350;2024-01-15T10:39:51;28.00;;;3.67;;
18752;SDS011;9505;50.882;5.350;2024-01-15T10:42:17;37.25;;;4.35;;
18752;SDS011;9505;50.882;5.350;2024-01-15T10:44:43;23.52;;;3.30;;
18752;SDS011;9505;50.882;5.350;2024-01-15T10:47:11;32.65;;;4.15;;
18752;SDS011;9505;50.882;5.350;2024-01-15T10:49:37;23.45;;;3.05;;
18752;SDS011;9505;50.882;5.350;2024-01-15T10:52:04;21.30;;;2.75;;
18752;SDS011;9505;50.882;5.350;2024-01-15T10:54:29;22.80;;;2.50;;
18752;SDS011;9505;50.882;5.350;2024-01-15T10:56:56;49.65;;;5.32;;
18752;SDS011;9505;50.882;5.350;2024-01-15T10:59:22;27.73;;;3.47;;
18752;SDS011;9505;50.882;5.350;2024-01-15T11:01:49;27.83;;;3.22;;
18752;SDS011;9505;50.882;5.350;2024-01-15T11:04:15;34.95;;;3.50;;
18752;SDS011;9505;50.882;5.350;2024-01-15T11:06:42;28.00;;;3.17;;
18752;SDS011;9505;50.882;5.350;2024-01-15T11:09:09;24.60;;;2.78;;
18752;SDS011;9505;50.882;5.350;2024-01-15T11:11:35;38.13;;;4.35;;
18752;SDS011;9505;50.882;5.350;2024-01-15T11:14:05;22.95;;;3.30;;
18752;SDS011;9505;50.882;5.350;2024-01-15T11:19:24;31.58;;;3.90;;
18752;SDS011;9505;50.882;5.350;2024-01-15T11:21:50;33.13;;;3.60;;
18752;SDS011;9505;50.882;5.350;2024-01-15T11:24:34;26.40;;;3.15;;
18752;SDS011;9505;50.882;5.350;2024-01-15T11:27:03;17.25;;;2.47;;
18752;SDS011;9505;50.882;5.350;2024-01-15T11:29:30;15.95;;;1.80;;
18752;SDS011;9505;50.882;5.350;2024-01-15T11:37:27;29.10;;;3.00;;
18752;SDS011;9505;50.882;5.350;2024-01-15T11:40:12;22.58;;;3.38;;
18752;SDS011;9505;50.882;5.350;2024-01-15T11:42:39;25.73;;;2.55;;
18752;SDS011;9505;50.882;5.350;2024-01-15T11:45:05;14.38;;;2.08;;
18752;SDS011;9505;50.882;5.350;2024-01-15T11:47:38;21.92;;;2.70;;
18752;SDS011;9505;50.882;5.350;2024-01-15T11:50:10;27.25;;;2.47;;
18752;SDS011;9505;50.882;5.350;2024-01-15T11:52:37;37.17;;;3.63;;
18752;SDS011;9505;50.882;5.350;2024-01-15T11:57:51;25.02;;;2.22;;
18752;SDS011;9505;50.882;5.350;2024-01-15T12:00:19;22.73;;;2.90;;
18752;SDS011;9505;50.882;5.350;2024-01-15T12:02:46;21.33;;;2.72;;
18752;SDS011;9505;50.882;5.350;2024-01-15T12:05:13;13.90;;;2.35;;
18752;SDS011;9505;50.882;5.350;2024-01-15T12:07:40;24.80;;;3.22;;
18752;SDS011;9505;50.882;5.350;2024-01-15T12:10:10;14.90;;;2.35;;
18752;SDS011;9505;50.882;5.350;2024-01-15T12:15:26;24.58;;;2.33;;
18752;SDS011;9505;50.882;5.350;2024-01-15T12:17:56;26.67;;;3.10;;
18752;SDS011;9505;50.882;5.350;2024-01-15T12:20:24;24.13;;;3.67;;
18752;SDS011;9505;50.882;5.350;2024-01-15T12:22:53;12.23;;;2.35;;
18752;SDS011;9505;50.882;5.350;2024-01-15T12:25:22;38.13;;;4.50;;
18752;SDS011;9505;50.882;5.350;2024-01-15T12:27:53;21.52;;;3.60;;
18752;SDS011;9505;50.882;5.350;2024-01-15T12:30:20;18.67;;;3.05;;
18752;SDS011;9505;50.882;5.350;2024-01-15T12:32:45;23.52;;;3.85;;
18752;SDS011;9505;50.882;5.350;2024-01-15T12:35:14;20.42;;;3.55;;
18752;SDS011;9505;50.882;5.350;2024-01-15T12:37:43;17.45;;;3.05;;
18752;SDS011;9505;50.882;5.350;2024-01-15T12:40:11;8.63;;;2.13;;
18752;SDS011;9505;50.882;5.350;2024-01-15T12:42:37;17.67;;;2.90;;
18752;SDS011;9505;50.882;5.350;2024-01-15T12:45:08;15.38;;;2.70;;
18752;SDS011;9505;50.882;5.350;2024-01-15T12:47:34;17.95;;;3.00;;
18752;SDS011;9505;50.882;5.350;2024-01-15T12:50:01;19.52;;;2.92;;
18752;SDS011;9505;50.882;5.350;2024-01-15T12:52:27;19.13;;;3.00;;
18752;SDS011;9505;50.882;5.350;2024-01-15T12:54:54;26.48;;;3.60;;
18752;SDS011;9505;50.882;5.350;2024-01-15T12:57:20;17.80;;;3.85;;
18752;SDS011;9505;50.882;5.350;2024-01-15T12:59:46;10.88;;;2.85;;
18752;SDS011;9505;50.882;5.350;2024-01-15T13:02:12;17.25;;;3.53;;
18752;SDS011;9505;50.882;5.350;2024-01-15T13:04:38;13.70;;;2.72;;
18752;SDS011;9505;50.882;5.350;2024-01-15T13:07:05;24.83;;;3.22;;
18752;SDS011;9505;50.882;5.350;2024-01-15T13:09:32;21.55;;;4.07;;
18752;SDS011;9505;50.882;5.350;2024-01-15T13:11:58;14.32;;;3.78;;
18752;SDS011;9505;50.882;5.350;2024-01-15T13:14:24;21.35;;;3.88;;
18752;SDS011;9505;50.882;5.350;2024-01-15T13:16:50;19.10;;;3.92;;
18752;SDS011;9505;50.882;5.350;2024-01-15T13:19:16;15.80;;;3.50;;
18752;SDS011;9505;50.882;5.350;2024-01-15T13:21:42;13.73;;;3.22;;
18752;SDS011;9505;50.882;5.350;2024-01-15T13:24:08;51.33;;;6.53;;
18752;SDS011;9505;50.882;5.350;2024-01-15T13:26:34;21.00;;;4.28;;
18752;SDS011;9505;50.882;5.350;2024-01-15T13:29:02;32.97;;;3.78;;
18752;SDS011;9505;50.882;5.350;2024-01-15T13:31:31;21.45;;;3.88;;
18752;SDS011;9505;50.882;5.350;2024-01-15T13:33:58;24.27;;;4.38;;
18752;SDS011;9505;50.882;5.350;2024-01-15T13:36:24;16.75;;;3.67;;
18752;SDS011;9505;50.882;5.350;2024-01-15T13:38:53;17.65;;;3.20;;
18752;SDS011;9505;50.882;5.350;2024-01-15T13:41:19;29.02;;;3.97;;
18752;SDS011;9505;50.882;5.350;2024-01-15T13:43:52;130.68;;;12.43;;
18752;SDS011;9505;50.882;5.350;2024-01-15T13:46:19;16.38;;;3.30;;
18752;SDS011;9505;50.882;5.350;2024-01-15T13:48:46;32.72;;;3.65;;
18752;SDS011;9505;50.882;5.350;2024-01-15T13:51:12;18.25;;;2.70;;
18752;SDS011;9505;50.882;5.350;2024-01-15T13:53:38;21.52;;;3.25;;
18752;SDS011;9505;50.882;5.350;2024-01-15T13:56:04;8.77;;;2.35;;
18752;SDS011;9505;50.882;5.350;2024-01-15T13:58:31;29.85;;;3.95;;
18752;SDS011;9505;50.882;5.350;2024-01-15T14:00:57;11.95;;;2.45;;
18752;SDS011;9505;50.882;5.350;2024-01-15T14:03:23;16.20;;;2.95;;
18752;SDS011;9505;50.882;5.350;2024-01-15T14:05:50;17.70;;;2.50;;
18752;SDS011;9505;50.882;5.350;2024-01-15T14:08:16;20.67;;;2.85;;
18752;SDS011;9505;50.882;5.350;2024-01-15T14:10:42;17.58;;;2.88;;
18752;SDS011;9505;50.882;5.350;2024-01-15T14:13:07;11.27;;;2.13;;
18752;SDS011;9505;50.882;5.350;2024-01-15T14:15:33;24.13;;;2.92;;
18752;SDS011;9505;50.882;5.350;2024-01-15T14:17:59;47.17;;;5.25;;
18752;SDS011;9505;50.882;5.350;2024-01-15T14:20:26;52.45;;;5.40;;
18752;SDS011;9505;50.882;5.350;2024-01-15T14:22:52;73.03;;;7.60;;
18752;SDS011;9505;50.882;5.350;2024-01-15T14:25:19;23.02;;;3.25;;
18752;SDS011;9505;50.882;5.350;2024-01-15T14:27:45;12.77;;;2.28;;
18752;SDS011;9505;50.882;5.350;2024-01-15T14:30:11;49.22;;;5.15;;
18752;SDS011;9505;50.882;5.350;2024-01-15T14:32:38;57.60;;;6.28;;
18752;SDS011;9505;50.882;5.350;2024-01-15T14:35:04;43.70;;;4.78;;
18752;SDS011;9505;50.882;5.350;2024-01-15T14:37:31;20.83;;;3.53;;
18752;SDS011;9505;50.882;5.350;2024-01-15T14:39:56;19.05;;;4.35;;
18752;SDS011;9505;50.882;5.350;2024-01-15T14:42:22;41.90;;;5.72;;
18752;SDS011;9505;50.882;5.350;2024-01-15T14:44:49;57.25;;;6.97;;
18752;SDS011;9505;50.882;5.350;2024-01-15T14:47:14;37.65;;;5.47;;
18752;SDS011;9505;50.882;5.350;2024-01-15T14:49:40;18.00;;;3.88;;